sensor_id;sensor_type;location;lat;lon;timestamp;temperature;humidity
19728;DHT22;10015;52.530;13.390;2023-03-29T00:01:08;6.40;99.90
19728;DHT22;10015;52.530;13.390;2023-03-29T00:03:35;6.20;99.90
19728;DHT22;10015;52.530;13.390;2023-03-29T00:06:02;5.90;99.90
19728;DHT22;10015;52.530;13.390;2023-03-29T00:08:28;5.60;99.90
19728;DHT22;10015;52.530;13.390;2023-03-29T00:10:57;5.50;99.90
19728;DHT22;10015;52.530;13.390;2023-03-29T00:13:25;5.40;99.90
19728;DHT22;10015;52.530;13.390;2023-03-29T00:15:52;5.20;99.90
19728;DHT22;10015;52.530;13.390;2023-03-29T00:18:18;5.00;99.90
19728;DHT22;10015;52.530;13.390;2023-03-29T00:20:43;5.00;99.90
19728;DHT22;10015;52.530;13.390;2023-03-29T00:23:09;5.00;99.90
19728;DHT22;10015;52.530;13.390;2023-03-29T00:25:35;5.00;99.90
19728;DHT22;10015;52.530;13.390;2023-03-29T00:28:01;5.10;99.90
19728;DHT22;10015;52.530;13.390;2023-03-29T00:30:27;5.00;99.90
19728;DHT22;10015;52.530;13.390;2023-03-29T00:32:54;4.90;99.90
19728;DHT22;10015;52.530;13.390;2023-03-29T00:35:20;5.00;99.90
19728;DHT22;10015;52.530;13.390;2023-03-29T00:37:46;5.20;99.90
19728;DHT22;10015;52.530;13.390;2023-03-29T00:40:15;5.20;99.90
19728;DHT22;10015;52.530;13.390;2023-03-29T00:42:43;5.40;99.90
19728;DHT22;10015;52.530;13.390;2023-03-29T00:47:40;5.50;99.90
19728;DHT22;10015;52.530;13.390;2023-03-29T00:50:17;5.40;99.90
19728;DHT22;10015;52.530;13.390;2023-03-29T00:55:38;5.40;99.90
19728;DHT22;10015;52.530;13.390;2023-03-29T00:58:08;5.50;99.90
19728;DHT22;10015;52.530;13.390;2023-03-29T01:01:04;5.40;99.90
19728;DHT22;10015;52.530;13.390;2023-03-29T01:03:32;5.20;99.90
19728;DHT22;10015;52.530;13.390;2023-03-29T01:06:04;4.90;99.90
19728;DHT22;10015;52.530;13.390;2023-03-29T01:08:43;4.70;99.90
19728;DHT22;10015;52.530;13.390;2023-03-29T01:16:12;4.60;99.90
19728;DHT22;10015;52.530;13.390;2023-03-29T01:18:38;4.60;99.90
19728;DHT22;10015;52.530;13.390;2023-03-29T01:21:13;4.60;99.90
19728;DHT22;10015;52.530;13.390;2023-03-29T01:26:42;4.60;99.90
19728;DHT22;10015;52.530;13.390;2023-03-29T01:29:38;4.40;99.90
19728;DHT22;10015;52.530;13.390;2023-03-29T01:32:10;4.40;99.90
19728;DHT22;10015;52.530;13.390;2023-03-29T01:34:43;4.40;99.90
19728;DHT22;10015;52.530;13.390;2023-03-29T01:37:17;4.60;99.90
19728;DHT22;10015;52.530;13.390;2023-03-29T01:39:46;4.70;99.90
19728;DHT22;10015;52.530;13.390;2023-03-29T01:42:14;4.80;99.90
19728;DHT22;10015;52.530;13.390;2023-03-29T01:47:53;4.60;99.90
19728;DHT22;10015;52.530;13.390;2023-03-29T01:50:35;4.30;99.90
19728;DHT22;10015;52.530;13.390;2023-03-29T01:53:07;4.10;99.90
19728;DHT22;10015;52.530;13.390;2023-03-29T01:55:39;4.20;99.90
19728;DHT22;10015;52.530;13.390;2023-03-29T01:58:08;4.20;99.90
19728;DHT22;10015;52.530;13.390;2023-03-29T02:00:37;4.10;99.90
19728;DHT22;10015;52.530;13.390;2023-03-29T02:03:08;4.10;99.90
19728;DHT22;10015;52.530;13.390;2023-03-29T02:05:36;4.10;99.90
19728;DHT22;10015;52.530;13.390;2023-03-29T02:08:05;4.00;99.90
19728;DHT22;10015;52.530;13.390;2023-03-29T02:10:33;4.10;99.90
19728;DHT22;10015;52.530;13.390;2023-03-29T02:12:59;4.10;99.90
19728;DHT22;10015;52.530;13.390;2023-03-29T02:15:26;4.10;99.90
19728;DHT22;10015;52.530;13.390;2023-03-29T02:17:52;4.00;99.90
19728;DHT22;10015;52.530;13.390;2023-03-29T02:20:20;4.00;99.90
19728;DHT22;10015;52.530;13.390;2023-03-29T02:25:17;4.10;99.90
19728;DHT22;10015;52.530;13.390;2023-03-29T02:27:44;4.10;99.90
19728;DHT22;10015;52.530;13.390;2023-03-29T02:30:12;4.00;99.90
19728;DHT22;10015;52.530;13.390;2023-03-29T02:35:33;3.90;99.90
19728;DHT22;10015;52.530;13.390;2023-03-29T02:38:06;4.00;99.90
19728;DHT22;10015;52.530;13.390;2023-03-29T02:40:35;4.10;99.90
19728;DHT22;10015;52.530;13.390;2023-03-29T02:43:05;4.10;99.90
19728;DHT22;10015;52.530;13.390;2023-03-29T02:45:32;4.00;99.90
19728;DHT22;10015;52.530;13.390;2023-03-29T02:48:03;3.90;99.90
19728;DHT22;10015;52.530;13.390;2023-03-29T02:50:35;3.90;99.90
19728;DHT22;10015;52.530;13.390;2023-03-29T02:53:06;3.90;99.90
19728;DHT22;10015;52.530;13.390;2023-03-29T02:55:34;4.10;99.90
19728;DHT22;10015;52.530;13.390;2023-03-29T02:58:01;4.10;99.90
19728;DHT22;10015;52.530;13.390;2023-03-29T03:00:36;4.00;99.90
19728;DHT22;10015;52.530;13.390;2023-03-29T03:03:05;4.00;99.90
19728;DHT22;10015;52.530;13.390;2023-03-29T03:05:32;3.90;99.90
19728;DHT22;10015;52.530;13.390;2023-03-29T03:07:58;4.10;99.90
19728;DHT22;10015;52.530;13.390;2023-03-29T03:10:25;4.00;99.90
19728;DHT22;10015;52.530;13.390;2023-03-29T03:12:51;3.90;99.90
19728;DHT22;10015;52.530;13.390;2023-03-29T03:15:17;3.80;99.90
19728;DHT22;10015;52.530;13.390;2023-03-29T03:17:43;3.90;99.90
19728;DHT22;10015;52.530;13.390;2023-03-29T03:20:10;4.00;99.90
19728;DHT22;10015;52.530;13.390;2023-03-29T03:22:44;3.90;99.90
19728;DHT22;10015;52.530;13.390;2023-03-29T03:25:18;3.70;99.90
19728;DHT22;10015;52.530;13.390;2023-03-29T03:27:47;3.70;99.90
19728;DHT22;10015;52.530;13.390;2023-03-29T03:30:15;3.70;99.90
19728;DHT22;10015;52.530;13.390;2023-03-29T03:32:57;3.60;99.90
19728;DHT22;10015;52.530;13.390;2023-03-29T03:35:45;3.50;99.90
19728;DHT22;10015;52.530;13.390;2023-03-29T03:38:13;3.50;99.90
19728;DHT22;10015;52.530;13.390;2023-03-29T03:40:40;3.50;99.90
19728;DHT22;10015;52.530;13.390;2023-03-29T03:43:06;3.60;99.90
19728;DHT22;10015;52.530;13.390;2023-03-29T03:45:32;3.60;99.90
19728;DHT22;10015;52.530;13.390;2023-03-29T03:48:19;3.50;99.90
19728;DHT22;10015;52.530;13.390;2023-03-29T03:50:56;3.50;99.90
19728;DHT22;10015;52.530;13.390;2023-03-29T03:53:25;3.50;99.90
19728;DHT22;10015;52.530;13.390;2023-03-29T03:56:09;3.40;99.90
19728;DHT22;10015;52.530;13.390;2023-03-29T03:58:56;3.50;99.90
19728;DHT22;10015;52.530;13.390;2023-03-29T04:01:22;3.50;99.90
19728;DHT22;10015;52.530;13.390;2023-03-29T04:03:58;3.50;99.90
19728;DHT22;10015;52.530;13.390;2023-03-29T04:06:27;3.50;99.90
19728;DHT22;10015;52.530;13.390;2023-03-29T04:09:21;3.60;99.90
19728;DHT22;10015;52.530;13.390;2023-03-29T04:11:58;3.60;99.90
19728;DHT22;10015;52.530;13.390;2023-03-29T04:14:24;3.40;99.90
19728;DHT22;10015;52.530;13.390;2023-03-29T04:17:02;3.50;99.90
19728;DHT22;10015;52.530;13.390;2023-03-29T04:19:50;3.60;99.90
19728;DHT22;10015;52.530;13.390;2023-03-29T04:22:16;3.50;99.90
19728;DHT22;10015;52.530;13.390;2023-03-29T04:24:42;3.40;99.90
19728;DHT22;10015;52.530;13.390;2023-03-29T04:27:31;3.40;99.90
19728;DHT22;10015;52.530;13.390;2023-03-29T04:30:00;3.30;99.90
19728;DHT22;10015;52.530;13.390;2023-03-29T04:32:46;3.40;99.90
19728;DHT22;10015;52.530;13.390;2023-03-29T04:35:12;3.40;99.90
19728;DHT22;10015;52.530;13.390;2023-03-29T04:37:38;3.50;99.90
19728;DHT22;10015;52.530;13.390;2023-03-29T04:40:07;3.50;99.90
19728;DHT22;10015;52.530;13.390;2023-03-29T04:42:46;3.50;99.90
19728;DHT22;10015;52.530;13.390;2023-03-29T04:45:13;3.40;99.90
19728;DHT22;10015;52.530;13.390;2023-03-29T04:48:00;3.20;99.90
19728;DHT22;10015;52.530;13.390;2023-03-29T04:50:27;3.20;99.90
19728;DHT22;10015;52.530;13.390;2023-03-29T04:52:53;3.20;99.90
19728;DHT22;10015;52.530;13.390;2023-03-29T04:55:19;3.20;99.90
19728;DHT22;10015;52.530;13.390;2023-03-29T04:57:53;3.30;99.90
19728;DHT22;10015;52.530;13.390;2023-03-29T05:00:29;3.30;99.90
19728;DHT22;10015;52.530;13.390;2023-03-29T05:02:58;3.30;99.90
19728;DHT22;10015;52.530;13.390;2023-03-29T05:05:25;3.30;99.90
19728;DHT22;10015;52.530;13.390;2023-03-29T05:07:52;3.30;99.90
19728;DHT22;10015;52.530;13.390;2023-03-29T05:10:24;3.30;99.90
19728;DHT22;10015;52.530;13.390;2023-03-29T05:12:49;3.20;99.90
19728;DHT22;10015;52.530;13.390;2023-03-29T05:15:19;3.10;99.90
19728;DHT22;10015;52.530;13.390;2023-03-29T05:17:47;3.10;99.90
19728;DHT22;10015;52.530;13.390;2023-03-29T05:20:15;3.20;99.90
19728;DHT22;10015;52.530;13.390;2023-03-29T05:22:44;3.30;99.90
19728;DHT22;10015;52.530;13.390;2023-03-29T05:25:18;3.30;99.90
19728;DHT22;10015;52.530;13.390;2023-03-29T05:27:44;3.30;99.90
19728;DHT22;10015;52.530;13.390;2023-03-29T05:30:12;3.30;99.90
19728;DHT22;10015;52.530;13.390;2023-03-29T05:33:03;3.40;99.90
19728;DHT22;10015;52.530;13.390;2023-03-29T05:35:31;3.40;99.90
19728;DHT22;10015;52.530;13.390;2023-03-29T05:37:59;3.50;99.90
19728;DHT22;10015;52.530;13.390;2023-03-29T05:40:25;3.50;99.90
19728;DHT22;10015;52.530;13.390;2023-03-29T05:43:14;3.60;99.90
19728;DHT22;10015;52.530;13.390;2023-03-29T05:45:40;3.50;99.90
19728;DHT22;10015;52.530;13.390;2023-03-29T05:48:06;3.60;99.90
19728;DHT22;10015;52.530;13.390;2023-03-29T05:50:32;3.60;99.90
19728;DHT22;10015;52.530;13.390;2023-03-29T05:52:59;3.50;99.90
19728;DHT22;10015;52.530;13.390;2023-03-29T05:55:25;3.50;99.90
19728;DHT22;10015;52.530;13.390;2023-03-29T05:57:52;3.50;99.90
19728;DHT22;10015;52.530;13.390;2023-03-29T06:00:21;3.60;99.90
19728;DHT22;10015;52.530;13.390;2023-03-29T06:02:58;3.60;99.90
19728;DHT22;10015;52.530;13.390;2023-03-29T06:05:24;3.60;99.90
19728;DHT22;10015;52.530;13.390;2023-03-29T06:07:56;3.80;99.90
19728;DHT22;10015;52.530;13.390;2023-03-29T06:10:46;3.70;99.90
19728;DHT22;10015;52.530;13.390;2023-03-29T06:13:28;3.80;99.90
19728;DHT22;10015;52.530;13.390;2023-03-29T06:15:54;3.80;99.90
19728;DHT22;10015;52.530;13.390;2023-03-29T06:18:21;3.80;99.90
19728;DHT22;10015;52.530;13.390;2023-03-29T06:20:48;3.90;99.90
19728;DHT22;10015;52.530;13.390;2023-03-29T06:23:15;4.10;99.90
19728;DHT22;10015;52.530;13.390;2023-03-29T06:25:42;4.20;99.90
19728;DHT22;10015;52.530;13.390;2023-03-29T06:28:09;4.30;99.90
19728;DHT22;10015;52.530;13.390;2023-03-29T06:30:40;4.30;99.90
19728;DHT22;10015;52.530;13.390;2023-03-29T06:33:07;4.50;99.90
19728;DHT22;10015;52.530;13.390;2023-03-29T06:35:53;4.60;99.90
19728;DHT22;10015;52.530;13.390;2023-03-29T06:38:25;4.60;99.90
19728;DHT22;10015;52.530;13.390;2023-03-29T06:41:11;4.40;99.90
19728;DHT22;10015;52.530;13.390;2023-03-29T06:44:00;4.40;99.90
19728;DHT22;10015;52.530;13.390;2023-03-29T06:46:35;4.60;99.90
19728;DHT22;10015;52.530;13.390;2023-03-29T06:49:05;4.70;99.90
19728;DHT22;10015;52.530;13.390;2023-03-29T06:51:52;4.80;99.90
19728;DHT22;10015;52.530;13.390;2023-03-29T06:54:19;4.80;99.90
19728;DHT22;10015;52.530;13.390;2023-03-29T06:56:55;4.70;99.90
19728;DHT22;10015;52.530;13.390;2023-03-29T06:59:24;4.70;99.90
19728;DHT22;10015;52.530;13.390;2023-03-29T07:01:56;4.60;99.90
19728;DHT22;10015;52.530;13.390;2023-03-29T07:04:52;4.50;99.90
19728;DHT22;10015;52.530;13.390;2023-03-29T07:07:32;4.60;99.90
19728;DHT22;10015;52.530;13.390;2023-03-29T07:10:29;4.60;99.90
19728;DHT22;10015;52.530;13.390;2023-03-29T07:13:16;4.60;99.90
19728;DHT22;10015;52.530;13.390;2023-03-29T07:15:44;4.90;99.90
19728;DHT22;10015;52.530;13.390;2023-03-29T07:18:29;5.10;99.90
19728;DHT22;10015;52.530;13.390;2023-03-29T07:20:55;5.40;99.90
19728;DHT22;10015;52.530;13.390;2023-03-29T07:23:22;5.50;99.90
19728;DHT22;10015;52.530;13.390;2023-03-29T07:25:50;5.40;99.90
19728;DHT22;10015;52.530;13.390;2023-03-29T07:28:17;5.50;99.90
19728;DHT22;10015;52.530;13.390;2023-03-29T07:30:43;5.80;99.90
19728;DHT22;10015;52.530;13.390;2023-03-29T07:33:12;6.10;99.90
19728;DHT22;10015;52.530;13.390;2023-03-29T07:35:47;6.40;99.90
19728;DHT22;10015;52.530;13.390;2023-03-29T07:38:13;6.60;99.90
19728;DHT22;10015;52.530;13.390;2023-03-29T07:40:46;6.70;99.90
19728;DHT22;10015;52.530;13.390;2023-03-29T07:43:31;6.80;99.90
19728;DHT22;10015;52.530;13.390;2023-03-29T07:46:01;6.80;99.90
19728;DHT22;10015;52.530;13.390;2023-03-29T07:48:32;6.90;99.90
19728;DHT22;10015;52.530;13.390;2023-03-29T07:51:03;6.80;99.90
19728;DHT22;10015;52.530;13.390;2023-03-29T07:53:37;6.70;99.90
19728;DHT22;10015;52.530;13.390;2023-03-29T07:56:10;6.50;99.90
19728;DHT22;10015;52.530;13.390;2023-03-29T07:58:59;6.30;99.90
19728;DHT22;10015;52.530;13.390;2023-03-29T08:01:27;6.40;99.90
19728;DHT22;10015;52.530;13.390;2023-03-29T08:04:23;6.50;99.90
19728;DHT22;10015;52.530;13.390;2023-03-29T08:07:08;7.00;99.90
19728;DHT22;10015;52.530;13.390;2023-03-29T08:09:53;7.40;99.90
19728;DHT22;10015;52.530;13.390;2023-03-29T08:12:26;7.60;99.90
19728;DHT22;10015;52.530;13.390;2023-03-29T08:14:55;7.50;99.90
19728;DHT22;10015;52.530;13.390;2023-03-29T08:17:27;7.60;99.90
19728;DHT22;10015;52.530;13.390;2023-03-29T08:19:53;7.90;99.90
19728;DHT22;10015;52.530;13.390;2023-03-29T08:22:22;8.20;99.90
19728;DHT22;10015;52.530;13.390;2023-03-29T08:25:11;8.50;99.90
19728;DHT22;10015;52.530;13.390;2023-03-29T08:27:43;8.50;99.90
19728;DHT22;10015;52.530;13.390;2023-03-29T08:30:11;8.60;99.90
19728;DHT22;10015;52.530;13.390;2023-03-29T08:32:40;8.70;99.90
19728;DHT22;10015;52.530;13.390;2023-03-29T08:35:09;9.00;99.90
19728;DHT22;10015;52.530;13.390;2023-03-29T08:37:42;9.40;99.90
19728;DHT22;10015;52.530;13.390;2023-03-29T08:40:18;9.80;99.90
19728;DHT22;10015;52.530;13.390;2023-03-29T08:44:03;10.20;99.90
19728;DHT22;10015;52.530;13.390;2023-03-29T08:47:04;10.90;99.90
19728;DHT22;10015;52.530;13.390;2023-03-29T08:49:43;11.60;99.90
19728;DHT22;10015;52.530;13.390;2023-03-29T08:52:22;12.00;99.90
19728;DHT22;10015;52.530;13.390;2023-03-29T08:54:58;12.10;99.90
19728;DHT22;10015;52.530;13.390;2023-03-29T08:57:46;12.20;99.90
19728;DHT22;10015;52.530;13.390;2023-03-29T09:02:57;11.50;99.90
19728;DHT22;10015;52.530;13.390;2023-03-29T09:05:33;11.80;99.90
19728;DHT22;10015;52.530;13.390;2023-03-29T09:08:15;12.10;99.90
19728;DHT22;10015;52.530;13.390;2023-03-29T09:22:11;12.10;99.90
19728;DHT22;10015;52.530;13.390;2023-03-29T09:27:26;11.20;99.90
19728;DHT22;10015;52.530;13.390;2023-03-29T09:30:19;11.30;99.90
19728;DHT22;10015;52.530;13.390;2023-03-29T09:36:07;11.80;99.90
19728;DHT22;10015;52.530;13.390;2023-03-29T09:38:41;12.10;99.90
19728;DHT22;10015;52.530;13.390;2023-03-29T09:41:25;12.30;99.90
19728;DHT22;10015;52.530;13.390;2023-03-29T09:43:53;12.80;99.90
19728;DHT22;10015;52.530;13.390;2023-03-29T09:46:39;13.20;99.90
19728;DHT22;10015;52.530;13.390;2023-03-29T09:49:11;13.60;99.90
19728;DHT22;10015;52.530;13.390;2023-03-29T09:51:41;13.90;99.90
19728;DHT22;10015;52.530;13.390;2023-03-29T09:54:10;14.10;99.90
19728;DHT22;10015;52.530;13.390;2023-03-29T09:57:02;14.40;99.90
19728;DHT22;10015;52.530;13.390;2023-03-29T09:59:28;14.50;99.90
19728;DHT22;10015;52.530;13.390;2023-03-29T10:02:05;14.70;99.90
19728;DHT22;10015;52.530;13.390;2023-03-29T10:04:32;14.80;99.90
19728;DHT22;10015;52.530;13.390;2023-03-29T10:06:59;15.00;99.90
19728;DHT22;10015;52.530;13.390;2023-03-29T10:09:28;15.30;99.90
19728;DHT22;10015;52.530;13.390;2023-03-29T10:12:05;15.10;99.90
19728;DHT22;10015;52.530;13.390;2023-03-29T10:14:42;15.20;99.90
19728;DHT22;10015;52.530;13.390;2023-03-29T10:17:27;15.50;99.90
19728;DHT22;10015;52.530;13.390;2023-03-29T10:20:00;15.70;99.90
19728;DHT22;10015;52.530;13.390;2023-03-29T10:22:35;15.70;99.90
19728;DHT22;10015;52.530;13.390;2023-03-29T10:25:03;15.00;99.90
19728;DHT22;10015;52.530;13.390;2023-03-29T10:27:31;14.40;99.90
19728;DHT22;10015;52.530;13.390;2023-03-29T10:30:06;14.20;99.90
19728;DHT22;10015;52.530;13.390;2023-03-29T10:32:34;14.30;99.90
19728;DHT22;10015;52.530;13.390;2023-03-29T10:35:20;14.20;99.90
19728;DHT22;10015;52.530;13.390;2023-03-29T10:37:49;14.50;99.90
19728;DHT22;10015;52.530;13.390;2023-03-29T10:40:24;15.00;99.90
19728;DHT22;10015;52.530;13.390;2023-03-29T10:42:51;14.90;99.90
19728;DHT22;10015;52.530;13.390;2023-03-29T10:45:23;13.90;99.90
19728;DHT22;10015;52.530;13.390;2023-03-29T10:47:49;13.70;99.90
19728;DHT22;10015;52.530;13.390;2023-03-29T10:50:15;13.70;99.90
19728;DHT22;10015;52.530;13.390;2023-03-29T10:52:42;13.40;99.90
19728;DHT22;10015;52.530;13.390;2023-03-29T10:55:12;13.50;99.90
19728;DHT22;10015;52.530;13.390;2023-03-29T10:58:02;13.40;99.90
19728;DHT22;10015;52.530;13.390;2023-03-29T11:00:56;13.20;99.90
19728;DHT22;10015;52.530;13.390;2023-03-29T11:06:43;13.00;99.90
19728;DHT22;10015;52.530;13.390;2023-03-29T11:20:25;12.90;99.90
19728;DHT22;10015;52.530;13.390;2023-03-29T11:37:39;12.40;99.90
19728;DHT22;10015;52.530;13.390;2023-03-29T11:40:25;12.30;99.90
19728;DHT22;10015;52.530;13.390;2023-03-29T11:42:57;12.20;99.90
19728;DHT22;10015;52.530;13.390;2023-03-29T11:45:33;12.10;99.90
19728;DHT22;10015;52.530;13.390;2023-03-29T11:48:05;12.40;99.90
19728;DHT22;10015;52.530;13.390;2023-03-29T11:53:51;12.90;99.90
19728;DHT22;10015;52.530;13.390;2023-03-29T11:56:23;12.70;99.90
19728;DHT22;10015;52.530;13.390;2023-03-29T11:58:56;12.80;99.90
19728;DHT22;10015;52.530;13.390;2023-03-29T12:03:59;12.50;99.90
19728;DHT22;10015;52.530;13.390;2023-03-29T12:06:31;12.70;99.90
19728;DHT22;10015;52.530;13.390;2023-03-29T12:11:47;12.40;99.90
19728;DHT22;10015;52.530;13.390;2023-03-29T12:15:17;12.30;99.90
19728;DHT22;10015;52.530;13.390;2023-03-29T12:17:15;12.50;99.90
19728;DHT22;10015;52.530;13.390;2023-03-29T12:19:59;12.80;99.90
19728;DHT22;10015;52.530;13.390;2023-03-29T12:22:25;13.10;99.90
19728;DHT22;10015;52.530;13.390;2023-03-29T12:24:52;13.40;99.90
19728;DHT22;10015;52.530;13.390;2023-03-29T12:30:39;13.60;99.90
19728;DHT22;10015;52.530;13.390;2023-03-29T12:39:13;13.00;99.90
19728;DHT22;10015;52.530;13.390;2023-03-29T12:42:20;13.10;99.90
19728;DHT22;10015;52.530;13.390;2023-03-29T12:45:14;12.90;99.90
19728;DHT22;10015;52.530;13.390;2023-03-29T12:47:43;12.40;99.90
19728;DHT22;10015;52.530;13.390;2023-03-29T12:50:31;12.30;99.90
19728;DHT22;10015;52.530;13.390;2023-03-29T12:53:21;12.50;99.90
19728;DHT22;10015;52.530;13.390;2023-03-29T12:56:08;12.50;99.90
19728;DHT22;10015;52.530;13.390;2023-03-29T13:03:51;12.40;99.90
19728;DHT22;10015;52.530;13.390;2023-03-29T13:06:31;12.50;99.90
19728;DHT22;10015;52.530;13.390;2023-03-29T13:09:17;12.30;99.90
19728;DHT22;10015;52.530;13.390;2023-03-29T13:11:51;12.30;99.90
19728;DHT22;10015;52.530;13.390;2023-03-29T13:14:20;12.40;99.90
19728;DHT22;10015;52.530;13.390;2023-03-29T13:16:47;12.40;99.90
19728;DHT22;10015;52.530;13.390;2023-03-29T13:19:46;12.50;99.90
19728;DHT22;10015;52.530;13.390;2023-03-29T13:22:22;12.40;99.90
19728;DHT22;10015;52.530;13.390;2023-03-29T13:36:44;12.40;99.90
19728;DHT22;10015;52.530;13.390;2023-03-29T13:39:20;12.30;99.90
19728;DHT22;10015;52.530;13.390;2023-03-29T13:41:50;12.30;99.90
19728;DHT22;10015;52.530;13.390;2023-03-29T13:44:25;12.30;99.90
19728;DHT22;10015;52.530;13.390;2023-03-29T13:47:14;12.20;99.90
19728;DHT22;10015;52.530;13.390;2023-03-29T13:49:56;12.00;99.90
19728;DHT22;10015;52.530;13.390;2023-03-29T13:52:33;11.50;99.90
19728;DHT22;10015;52.530;13.390;2023-03-29T13:55:07;11.40;99.90
19728;DHT22;10015;52.530;13.390;2023-03-29T13:58:14;11.30;99.90
19728;DHT22;10015;52.530;13.390;2023-03-29T14:00:43;11.50;99.90
19728;DHT22;10015;52.530;13.390;2023-03-29T14:03:13;11.50;99.90
19728;DHT22;10015;52.530;13.390;2023-03-29T14:05:59;11.50;99.90
19728;DHT22;10015;52.530;13.390;2023-03-29T14:08:38;11.50;99.90
19728;DHT22;10015;52.530;13.390;2023-03-29T14:11:06;11.60;99.90
19728;DHT22;10015;52.530;13.390;2023-03-29T14:13:37;11.50;99.90
19728;DHT22;10015;52.530;13.390;2023-03-29T14:16:06;11.70;99.90
19728;DHT22;10015;52.530;13.390;2023-03-29T14:18:39;11.70;99.90
19728;DHT22;10015;52.530;13.390;2023-03-29T14:21:06;11.70;99.90
19728;DHT22;10015;52.530;13.390;2023-03-29T14:23:36;11.80;99.90
19728;DHT22;10015;52.530;13.390;2023-03-29T14:29:00;11.30;99.90
19728;DHT22;10015;52.530;13.390;2023-03-29T14:31:35;11.30;99.90
19728;DHT22;10015;52.530;13.390;2023-03-29T14:34:13;11.40;99.90
19728;DHT22;10015;52.530;13.390;2023-03-29T14:36:44;11.40;99.90
19728;DHT22;10015;52.530;13.390;2023-03-29T14:39:17;11.40;99.90
19728;DHT22;10015;52.530;13.390;2023-03-29T14:41:53;11.40;99.90
19728;DHT22;10015;52.530;13.390;2023-03-29T14:44:24;11.30;99.90
19728;DHT22;10015;52.530;13.390;2023-03-29T14:46:50;11.30;99.90
19728;DHT22;10015;52.530;13.390;2023-03-29T14:49:18;11.40;99.90
19728;DHT22;10015;52.530;13.390;2023-03-29T14:51:46;11.60;99.90
19728;DHT22;10015;52.530;13.390;2023-03-29T14:54:25;11.50;99.90
19728;DHT22;10015;52.530;13.390;2023-03-29T14:56:52;11.40;99.90
19728;DHT22;10015;52.530;13.390;2023-03-29T15:01:48;11.30;99.90
19728;DHT22;10015;52.530;13.390;2023-03-29T15:04:14;11.40;99.90
19728;DHT22;10015;52.530;13.390;2023-03-29T15:06:41;11.40;99.90
19728;DHT22;10015;52.530;13.390;2023-03-29T15:09:26;11.40;99.90
19728;DHT22;10015;52.530;13.390;2023-03-29T15:11:54;11.30;99.90
19728;DHT22;10015;52.530;13.390;2023-03-29T15:14:22;11.40;99.90
19728;DHT22;10015;52.530;13.390;2023-03-29T15:16:50;11.50;99.90
19728;DHT22;10015;52.530;13.390;2023-03-29T15:19:24;11.50;99.90
19728;DHT22;10015;52.530;13.390;2023-03-29T15:21:50;11.60;99.90
19728;DHT22;10015;52.530;13.390;2023-03-29T15:24:26;11.50;99.90
19728;DHT22;10015;52.530;13.390;2023-03-29T15:27:09;11.30;99.90
19728;DHT22;10015;52.530;13.390;2023-03-29T15:29:42;11.40;99.90
19728;DHT22;10015;52.530;13.390;2023-03-29T15:32:17;11.50;99.90
19728;DHT22;10015;52.530;13.390;2023-03-29T15:34:44;11.60;99.90
19728;DHT22;10015;52.530;13.390;2023-03-29T15:37:11;11.50;99.90
19728;DHT22;10015;52.530;13.390;2023-03-29T15:39:41;11.60;99.90
19728;DHT22;10015;52.530;13.390;2023-03-29T15:42:08;11.60;99.90
19728;DHT22;10015;52.530;13.390;2023-03-29T15:44:36;11.50;99.90
19728;DHT22;10015;52.530;13.390;2023-03-29T15:47:08;11.70;99.90
19728;DHT22;10015;52.530;13.390;2023-03-29T15:49:34;11.70;99.90
19728;DHT22;10015;52.530;13.390;2023-03-29T15:52:00;11.70;99.90
19728;DHT22;10015;52.530;13.390;2023-03-29T15:54:27;11.50;99.90
19728;DHT22;10015;52.530;13.390;2023-03-29T15:56:59;11.30;99.90
19728;DHT22;10015;52.530;13.390;2023-03-29T15:59:26;11.30;99.90
19728;DHT22;10015;52.530;13.390;2023-03-29T16:01:52;11.40;99.90
19728;DHT22;10015;52.530;13.390;2023-03-29T16:04:20;11.30;99.90
19728;DHT22;10015;52.530;13.390;2023-03-29T16:06:49;11.20;99.90
19728;DHT22;10015;52.530;13.390;2023-03-29T16:09:17;11.10;99.90
19728;DHT22;10015;52.530;13.390;2023-03-29T16:11:44;11.10;99.90
19728;DHT22;10015;52.530;13.390;2023-03-29T16:14:23;11.20;99.90
19728;DHT22;10015;52.530;13.390;2023-03-29T16:16:51;11.00;99.90
19728;DHT22;10015;52.530;13.390;2023-03-29T16:19:17;11.10;99.90
19728;DHT22;10015;52.530;13.390;2023-03-29T16:21:43;11.20;99.90
19728;DHT22;10015;52.530;13.390;2023-03-29T16:24:15;11.20;99.90
19728;DHT22;10015;52.530;13.390;2023-03-29T16:26:42;11.20;99.90
19728;DHT22;10015;52.530;13.390;2023-03-29T16:29:08;11.10;99.90
19728;DHT22;10015;52.530;13.390;2023-03-29T16:31:34;11.10;99.90
19728;DHT22;10015;52.530;13.390;2023-03-29T16:34:01;11.10;99.90
19728;DHT22;10015;52.530;13.390;2023-03-29T16:36:27;11.10;99.90
19728;DHT22;10015;52.530;13.390;2023-03-29T16:38:56;11.30;99.90
19728;DHT22;10015;52.530;13.390;2023-03-29T16:41:22;11.20;99.90
19728;DHT22;10015;52.530;13.390;2023-03-29T16:43:48;11.20;99.90
19728;DHT22;10015;52.530;13.390;2023-03-29T16:46:15;11.20;99.90
19728;DHT22;10015;52.530;13.390;2023-03-29T16:48:41;11.10;99.90
19728;DHT22;10015;52.530;13.390;2023-03-29T16:51:08;11.00;99.90
19728;DHT22;10015;52.530;13.390;2023-03-29T16:53:35;11.00;99.90
19728;DHT22;10015;52.530;13.390;2023-03-29T16:56:02;10.90;99.90
19728;DHT22;10015;52.530;13.390;2023-03-29T16:58:28;10.90;99.90
19728;DHT22;10015;52.530;13.390;2023-03-29T17:00:54;10.90;99.90
19728;DHT22;10015;52.530;13.390;2023-03-29T17:03:21;10.90;99.90
19728;DHT22;10015;52.530;13.390;2023-03-29T17:05:52;10.90;99.90
19728;DHT22;10015;52.530;13.390;2023-03-29T17:08:19;11.00;99.90
19728;DHT22;10015;52.530;13.390;2023-03-29T17:10:50;10.90;99.90
19728;DHT22;10015;52.530;13.390;2023-03-29T17:13:16;10.90;99.90
19728;DHT22;10015;52.530;13.390;2023-03-29T17:15:42;10.90;99.90
19728;DHT22;10015;52.530;13.390;2023-03-29T17:18:08;10.90;99.90
19728;DHT22;10015;52.530;13.390;2023-03-29T17:20:37;10.90;99.90
19728;DHT22;10015;52.530;13.390;2023-03-29T17:23:03;10.90;99.90
19728;DHT22;10015;52.530;13.390;2023-03-29T17:25:30;11.00;99.90
19728;DHT22;10015;52.530;13.390;2023-03-29T17:27:56;11.00;99.90
19728;DHT22;10015;52.530;13.390;2023-03-29T17:30:22;11.00;99.90
19728;DHT22;10015;52.530;13.390;2023-03-29T17:32:48;11.00;99.90
19728;DHT22;10015;52.530;13.390;2023-03-29T17:35:14;10.90;99.90
19728;DHT22;10015;52.530;13.390;2023-03-29T17:37:40;10.90;99.90
19728;DHT22;10015;52.530;13.390;2023-03-29T17:40:07;11.00;99.90
19728;DHT22;10015;52.530;13.390;2023-03-29T17:42:35;11.00;99.90
19728;DHT22;10015;52.530;13.390;2023-03-29T17:45:01;11.00;99.90
19728;DHT22;10015;52.530;13.390;2023-03-29T17:47:27;11.00;99.90